Time;durP1;ratioP1;P1;durP2;ratioP2;P2;SDS_P1;SDS_P2;PMS_P1;PMS_P2;Temp;Humidity;BMP_temperature;BMP_pressure;BME280_temperature;BME280_humidity;BME280_pressure;Samples;Min_cycle;Max_cycle;Signal;HPM_P1;HPM_P2
2022/04/14 00:01:27;;;;;;;6.35;4.28;;;;;;;20.80;44.08;99003.02;1851276;77;25624;-86
2022/04/14 00:03:52;;;;;;;5.87;4.05;;;;;;;20.80;44.10;99002.21;1851487;77;25647;-86
2022/04/14 00:06:19;;;;;;;6.00;3.98;;;;;;;20.79;44.10;99004.79;1851448;77;25704;-86
2022/04/14 00:08:45;;;;;;;5.05;3.85;;;;;;;20.79;44.16;99002.82;1851536;77;25680;-89
2022/04/14 00:11:11;;;;;;;5.80;4.10;;;;;;;20.79;44.16;98994.47;1851473;77;27638;-85
2022/04/14 00:13:37;;;;;;;6.00;4.03;;;;;;;20.77;44.21;99002.96;1851265;77;25699;-85
2022/04/14 00:16:03;;;;;;;6.22;4.20;;;;;;;20.77;44.21;99000.17;1851541;77;25698;-86
2022/04/14 00:18:29;;;;;;;7.83;4.40;;;;;;;20.76;44.22;98994.41;1851451;77;26517;-85
2022/04/14 00:20:55;;;;;;;6.45;4.25;;;;;;;20.74;44.28;98992.57;1851572;77;25624;-86
2022/04/14 00:23:21;;;;;;;6.92;4.40;;;;;;;20.74;44.29;98996.17;1851428;77;28238;-88
2022/04/14 00:25:47;;;;;;;6.55;4.53;;;;;;;20.73;44.32;98999.33;1851278;77;25423;-91
2022/04/14 00:28:13;;;;;;;7.25;4.17;;;;;;;20.73;44.31;98996.55;1851346;77;25457;-86
2022/04/14 00:30:39;;;;;;;6.95;4.83;;;;;;;20.71;44.37;98998.89;1851085;77;25771;-85
2022/04/14 00:33:05;;;;;;;7.05;4.50;;;;;;;20.71;44.32;98998.31;1848100;76;25631;-88
2022/04/14 00:35:31;;;;;;;5.92;4.33;;;;;;;20.70;44.37;98996.71;1851467;77;27577;-92
2022/04/14 00:37:57;;;;;;;6.33;4.78;;;;;;;20.71;44.40;98993.31;1851395;77;25726;-90
2022/04/14 00:40:23;;;;;;;7.28;4.70;;;;;;;20.68;44.40;98992.91;1851513;77;25531;-91
2022/04/14 00:42:49;;;;;;;6.22;4.15;;;;;;;20.67;44.46;98993.28;1851504;77;25750;-91
2022/04/14 00:45:15;;;;;;;6.30;4.20;;;;;;;20.65;44.43;98993.66;1851431;77;25580;-92
2022/04/14 00:47:41;;;;;;;7.15;4.60;;;;;;;20.64;44.49;98990.64;1851364;77;28158;-93
2022/04/14 00:50:08;;;;;;;5.90;4.30;;;;;;;20.64;44.52;98988.45;1851378;77;25599;-92
2022/04/14 00:52:34;;;;;;;7.08;4.30;;;;;;;20.63;44.53;98991.82;1851495;77;25462;-89
2022/04/14 00:55:00;;;;;;;7.15;4.70;;;;;;;20.63;44.50;98991.02;1851499;77;25700;-85
2022/04/14 00:57:27;;;;;;;5.92;4.28;;;;;;;20.63;44.53;98993.80;1851525;77;25430;-87
2022/04/14 00:59:53;;;;;;;7.05;4.60;;;;;;;20.63;44.57;98994.61;1851578;77;27369;-85
2022/04/14 01:02:19;;;;;;;7.10;4.83;;;;;;;20.63;44.55;98996.58;1851521;77;25644;-93
2022/04/14 01:04:46;;;;;;;7.90;4.62;;;;;;;20.64;44.55;98990.64;1851734;77;25379;-92
2022/04/14 01:07:12;;;;;;;7.12;4.87;;;;;;;20.63;44.58;98993.22;1851524;77;25689;-90
2022/04/14 01:09:39;;;;;;;5.78;4.35;;;;;;;20.62;44.58;98990.22;1851703;77;25667;-93
2022/04/14 01:12:08;;;;;;;7.00;4.40;;;;;;;20.62;44.58;98985.23;1851704;77;27433;-93
2022/04/14 01:14:36;;;;;;;5.78;4.50;;;;;;;20.62;44.64;98986.63;1851837;77;26151;-88
2022/04/14 01:17:07;;;;;;;7.42;4.83;;;;;;;20.62;44.57;98982.45;1851720;77;25451;-86
2022/04/14 01:19:34;;;;;;;7.33;5.00;;;;;;;20.63;44.56;98981.27;1851878;77;25737;-85
2022/04/14 01:22:15;;;;;;;8.08;4.95;;;;;;;20.62;44.61;98976.88;1851291;77;25477;-86
2022/04/14 01:24:42;;;;;;;7.12;4.85;;;;;;;20.60;44.61;98977.26;1850914;77;27405;-86
2022/04/14 01:27:09;;;;;;;7.55;4.75;;;;;;;20.60;44.62;98978.65;1851482;77;25842;-86
2022/04/14 01:29:35;;;;;;;7.03;4.80;;;;;;;20.58;44.67;98980.99;1846770;77;25662;-85
2022/04/14 01:32:04;;;;;;;7.40;4.97;;;;;;;20.57;44.70;98979.39;1849492;77;25674;-85
2022/04/14 01:34:30;;;;;;;6.90;4.75;;;;;;;20.60;44.68;98980.63;1849153;77;26100;-90
2022/04/14 01:36:58;;;;;;;7.97;4.97;;;;;;;20.58;44.69;98982.99;1849515;77;27370;-85
2022/04/14 01:39:25;;;;;;;7.72;5.00;;;;;;;20.55;44.70;98983.95;1849321;77;25742;-85
2022/04/14 01:41:50;;;;;;;8.10;5.03;;;;;;;20.56;44.76;98983.37;1849327;77;25607;-85
2022/04/14 01:44:17;;;;;;;8.15;5.10;;;;;;;20.56;44.75;98981.98;1849531;77;26542;-85
2022/04/14 01:46:43;;;;;;;7.10;5.08;;;;;;;20.56;44.76;98986.15;1849468;77;25465;-88
2022/04/14 01:49:09;;;;;;;8.15;4.72;;;;;;;20.55;44.77;98984.52;1849080;77;28308;-85
2022/04/14 01:51:37;;;;;;;7.62;5.40;;;;;;;20.56;44.79;98986.94;1849328;77;25904;-87
2022/04/14 01:54:04;;;;;;;7.33;4.60;;;;;;;20.57;44.77;98987.75;1849419;77;25710;-87
2022/04/14 01:56:30;;;;;;;6.40;4.78;;;;;;;20.56;44.78;98989.72;1849372;77;25872;-84
2022/04/14 01:58:57;;;;;;;7.17;5.10;;;;;;;20.56;44.80;98991.11;1849452;77;25677;-86
2022/04/14 02:01:23;;;;;;;7.95;4.95;;;;;;;20.56;44.77;98996.68;1849386;77;28232;-86
2022/04/14 02:03:51;;;;;;;7.92;5.17;;;;;;;20.54;44.81;98989.31;1849404;77;25473;-88
2022/04/14 02:06:18;;;;;;;7.75;4.97;;;;;;;20.53;44.81;98987.68;1849497;77;25695;-85
2022/04/14 02:08:45;;;;;;;8.28;5.25;;;;;;;20.53;44.86;98990.46;1849224;77;25638;-88
2022/04/14 02:11:11;;;;;;;6.75;5.08;;;;;;;20.54;44.83;98990.70;1849329;77;25382;-87
2022/04/14 02:13:38;;;;;;;6.75;5.10;;;;;;;20.53;44.83;98983.50;1849394;77;28138;-87
2022/04/14 02:16:04;;;;;;;7.62;5.35;;;;;;;20.51;44.90;98978.92;1849356;77;25701;-86
2022/04/14 02:18:31;;;;;;;6.87;5.12;;;;;;;20.51;44.89;98985.06;1849528;77;25407;-85
2022/04/14 02:20:57;;;;;;;8.68;5.33;;;;;;;20.50;44.89;98979.29;1849298;77;25637;-87
2022/04/14 02:23:23;;;;;;;8.43;5.80;;;;;;;20.51;44.93;98982.28;1849382;77;25627;-86
2022/04/14 02:25:50;;;;;;;7.47;5.10;;;;;;;20.49;44.92;98984.66;1845985;77;27374;-86
2022/04/14 02:28:16;;;;;;;7.58;5.35;;;;;;;20.48;44.97;98977.45;1849438;77;25715;-92
2022/04/14 02:30:42;;;;;;;7.92;5.25;;;;;;;20.48;44.92;98974.09;1851181;77;25659;-91
2022/04/14 02:33:08;;;;;;;8.20;5.60;;;;;;;20.48;44.95;98973.28;1851860;77;25725;-92
2022/04/14 02:35:34;;;;;;;8.25;5.50;;;;;;;20.47;44.96;98973.08;1851879;77;25623;-92
2022/04/14 02:38:00;;;;;;;6.97;5.03;;;;;;;20.47;44.95;98979.45;1853487;77;27385;-85
2022/04/14 02:40:26;;;;;;;9.60;5.55;;;;;;;20.47;45.01;98974.47;1851690;77;25983;-87
2022/04/14 02:42:54;;;;;;;8.55;6.05;;;;;;;20.46;45.01;98977.05;1851834;77;25667;-85
2022/04/14 02:45:27;;;;;;;8.48;5.35;;;;;;;20.46;44.99;98975.05;1851626;77;25794;-87
2022/04/14 02:47:54;;;;;;;8.58;6.15;;;;;;;20.44;45.01;98971.24;1851802;77;25612;-85
2022/04/14 02:50:22;;;;;;;8.13;5.55;;;;;;;20.45;45.03;98980.41;1851806;77;26895;-86
2022/04/14 02:52:49;;;;;;;8.30;5.58;;;;;;;20.45;44.98;98976.23;1851607;77;25821;-87
2022/04/14 02:55:17;;;;;;;10.80;6.47;;;;;;;20.45;44.97;98981.80;1851758;77;25461;-86
2022/04/14 02:57:44;;;;;;;8.20;5.65;;;;;;;20.43;45.04;98976.61;1851385;77;26597;-85
2022/04/14 03:00:11;;;;;;;9.35;5.72;;;;;;;20.44;45.02;98974.64;1851851;77;25639;-89
2022/04/14 03:02:41;;;;;;;7.42;5.42;;;;;;;20.43;45.00;98969.65;1851795;77;28117;-86
2022/04/14 03:05:09;;;;;;;8.75;5.90;;;;;;;20.41;45.07;98968.42;1851719;77;25683;-88
2022/04/14 03:07:36;;;;;;;8.53;5.30;;;;;;;20.41;45.09;98969.81;1851752;77;25842;-86
2022/04/14 03:10:05;;;;;;;8.63;5.60;;;;;;;20.40;45.10;98967.61;1851496;77;25793;-93
2022/04/14 03:12:51;;;;;;;8.98;5.92;;;;;;;20.41;45.10;98971.98;1851787;77;25778;-93
2022/04/14 03:15:14;;;;;;;10.40;6.00;;;;;;;20.42;45.08;98969.44;1849597;77;26068;-93
2022/04/14 03:17:41;;;;;;;8.03;5.70;;;;;;;20.40;45.10;98970.97;1851648;77;25560;-94
2022/04/14 03:20:10;;;;;;;9.98;6.25;;;;;;;20.39;45.12;98975.75;1848362;77;25573;-90
2022/04/14 03:22:36;;;;;;;8.83;5.40;;;;;;;20.39;45.10;98971.58;1851753;77;26534;-93
2022/04/14 03:25:11;;;;;;;8.23;5.60;;;;;;;20.38;45.17;98969.17;1851834;77;25563;-90
2022/04/14 03:27:37;;;;;;;8.53;5.87;;;;;;;20.39;45.13;98972.97;1851714;77;27420;-92
2022/04/14 03:30:11;;;;;;;8.60;5.72;;;;;;;20.39;45.16;98969.38;1850306;77;25690;-92
2022/04/14 03:32:43;;;;;;;9.03;6.30;;;;;;;20.37;45.18;98966.96;1849034;77;25703;-92
2022/04/14 03:35:10;;;;;;;8.73;6.00;;;;;;;20.37;45.17;98965.57;1849295;77;26438;-94
2022/04/14 03:37:37;;;;;;;9.23;5.70;;;;;;;20.35;45.22;98964.34;1849344;77;25631;-93
2022/04/14 03:40:05;;;;;;;8.73;6.15;;;;;;;20.37;45.24;98972.53;1849464;77;27476;-93
2022/04/14 03:42:31;;;;;;;9.78;6.50;;;;;;;20.37;45.21;98971.72;1849342;77;25917;-93
2022/04/14 03:44:58;;;;;;;9.25;5.87;;;;;;;20.36;45.22;98967.34;1849376;77;25465;-93
2022/04/14 03:47:25;;;;;;;9.05;6.12;;;;;;;20.33;45.27;98966.11;1849015;77;25896;-88
2022/04/14 03:49:51;;;;;;;8.88;6.17;;;;;;;20.34;45.26;98969.67;1849423;77;25746;-87
2022/04/14 03:52:17;;;;;;;10.35;6.15;;;;;;;20.34;45.28;98968.28;1849338;77;27370;-92
2022/04/14 03:54:45;;;;;;;9.48;6.20;;;;;;;20.33;45.29;98968.89;1849283;77;25968;-90
2022/04/14 03:57:11;;;;;;;9.75;6.00;;;;;;;20.32;45.31;98972.83;1849431;77;25203;-93
2022/04/14 03:59:38;;;;;;;10.05;6.40;;;;;;;20.32;45.31;98971.44;1849129;77;25849;-86
2022/04/14 04:02:05;;;;;;;9.08;6.05;;;;;;;20.33;45.31;98975.03;1849419;77;25641;-86
2022/04/14 04:04:32;;;;;;;10.58;6.45;;;;;;;20.33;45.30;98977.82;1849426;77;28016;-85
2022/04/14 04:06:59;;;;;;;9.73;6.25;;;;;;;20.33;45.30;98975.85;1848907;77;26036;-85
2022/04/14 04:09:26;;;;;;;8.33;6.08;;;;;;;20.33;45.34;98979.21;1849389;77;25560;-85
2022/04/14 04:11:54;;;;;;;10.53;6.55;;;;;;;20.31;45.37;98972.63;1849057;77;25732;-87
2022/04/14 04:14:21;;;;;;;11.00;7.08;;;;;;;20.30;45.37;98977.98;1849199;77;25675;-85
2022/04/14 04:16:47;;;;;;;9.08;6.00;;;;;;;20.31;45.38;98980.97;1845965;77;27627;-85
2022/04/14 04:19:13;;;;;;;10.60;6.92;;;;;;;20.30;45.38;98978.77;1849196;77;25730;-87
2022/04/14 04:21:39;;;;;;;11.73;6.75;;;;;;;20.28;45.42;98975.58;1849389;77;25640;-88
2022/04/14 04:24:06;;;;;;;11.48;7.10;;;;;;;20.28;45.41;98983.92;1849294;77;25579;-86
2022/04/14 04:26:32;;;;;;;10.85;6.78;;;;;;;20.29;45.44;98977.75;1849460;77;25441;-89
2022/04/14 04:28:58;;;;;;;10.95;6.72;;;;;;;20.30;45.46;98982.16;1849322;77;27549;-85
2022/04/14 04:31:24;;;;;;;10.08;6.75;;;;;;;20.29;45.42;98980.53;1848948;77;25686;-87
2022/04/14 04:33:51;;;;;;;10.45;6.62;;;;;;;20.27;45.45;98978.13;1849365;77;25591;-86
2022/04/14 04:36:19;;;;;;;10.60;6.42;;;;;;;20.27;45.48;98983.69;1849122;77;25675;-87
2022/04/14 04:38:45;;;;;;;10.20;6.45;;;;;;;20.28;45.49;98984.50;1848210;77;25603;-93
2022/04/14 04:41:11;;;;;;;12.05;7.53;;;;;;;20.28;45.50;98988.67;1849799;77;27542;-85
2022/04/14 04:43:38;;;;;;;11.08;7.10;;;;;;;20.28;45.48;98991.45;1849349;77;25860;-85
2022/04/14 04:46:04;;;;;;;10.75;6.65;;;;;;;20.28;45.50;98991.45;1849312;77;25584;-85
2022/04/14 04:48:30;;;;;;;10.35;7.20;;;;;;;20.28;45.49;98995.05;1848822;77;25765;-91
2022/04/14 04:50:56;;;;;;;12.45;7.35;;;;;;;20.27;45.50;98994.81;1849216;77;25653;-93
2022/04/14 04:53:22;;;;;;;11.85;7.40;;;;;;;20.27;45.53;98996.20;1849394;77;27332;-89
2022/04/14 04:55:48;;;;;;;9.75;7.33;;;;;;;20.26;45.58;98986.27;1849201;77;25394;-92
2022/04/14 04:58:14;;;;;;;11.12;7.28;;;;;;;20.25;45.61;98988.84;1849404;77;25647;-91
2022/04/14 05:00:44;;;;;;;11.68;7.35;;;;;;;20.25;45.67;98992.20;1849355;77;26173;-92
2022/04/14 05:03:12;;;;;;;11.55;7.42;;;;;;;20.24;45.60;98990.02;1848967;77;25735;-92
2022/04/14 05:05:40;;;;;;;11.83;7.28;;;;;;;20.23;45.57;98985.61;1849222;77;27420;-93
2022/04/14 05:08:07;;;;;;;11.45;7.50;;;;;;;20.23;45.65;98983.44;1853112;77;25765;-93
2022/04/14 05:10:34;;;;;;;10.30;7.58;;;;;;;20.24;45.60;98987.81;1849289;77;25390;-93
2022/04/14 05:13:01;;;;;;;11.45;7.40;;;;;;;20.26;45.56;98984.09;1846301;77;25701;-93
2022/04/14 05:15:27;;;;;;;11.38;7.40;;;;;;;20.26;45.59;98979.91;1849438;77;25536;-87
2022/04/14 05:17:53;;;;;;;12.10;7.80;;;;;;;20.26;45.57;98975.73;1849388;77;28145;-94
2022/04/14 05:20:19;;;;;;;12.10;7.65;;;;;;;20.27;45.55;98980.91;1849462;77;25859;-93
2022/04/14 05:22:45;;;;;;;12.95;7.92;;;;;;;20.27;45.55;98982.30;1849326;77;25615;-86
2022/04/14 05:25:11;;;;;;;12.85;8.35;;;;;;;20.26;45.54;98978.52;1849295;77;25849;-85
2022/04/14 05:27:37;;;;;;;12.00;7.90;;;;;;;20.27;45.55;98977.34;1849281;77;25596;-84
2022/04/14 05:30:05;;;;;;;12.33;7.92;;;;;;;20.27;45.55;98980.91;1849718;77;28164;-85
2022/04/14 05:32:31;;;;;;;13.45;8.43;;;;;;;20.26;45.51;98979.30;1851286;77;25422;-86
2022/04/14 05:34:57;;;;;;;12.63;8.20;;;;;;;20.27;45.60;98984.30;1851505;77;25833;-85
2022/04/14 05:37:23;;;;;;;16.30;9.33;;;;;;;20.29;45.61;98983.31;1851415;77;25630;-86
2022/04/14 05:39:49;;;;;;;14.40;7.92;;;;;;;20.28;45.58;98981.14;1851282;77;25670;-85
2022/04/14 05:42:15;;;;;;;14.10;8.08;;;;;;;20.30;45.60;98981.55;1851416;77;27419;-85
2022/04/14 05:44:41;;;;;;;15.15;9.13;;;;;;;20.30;45.63;98980.77;1851489;77;25564;-85
2022/04/14 05:47:08;;;;;;;12.53;8.40;;;;;;;20.30;45.60;98980.16;1851628;77;25588;-88
2022/04/14 05:49:34;;;;;;;13.83;7.90;;;;;;;20.33;45.63;98983.39;1851592;77;25662;-87
2022/04/14 05:52:00;;;;;;;12.20;8.58;;;;;;;20.32;45.69;98978.39;1851600;77;25549;-87
2022/04/14 05:54:26;;;;;;;14.18;8.60;;;;;;;20.31;45.82;98982.37;1851671;77;27470;-86
2022/04/14 05:56:53;;;;;;;12.82;8.60;;;;;;;20.31;45.85;98976.22;1851229;77;25762;-85
2022/04/14 05:59:19;;;;;;;14.20;8.40;;;;;;;20.32;45.87;98975.61;1851622;77;25673;-85
2022/04/14 06:01:47;;;;;;;14.10;8.95;;;;;;;20.33;45.97;98973.64;1851709;77;26258;-85
2022/04/14 06:04:13;;;;;;;14.95;8.58;;;;;;;20.33;45.96;98973.64;1851628;77;25382;-85
2022/04/14 06:06:40;;;;;;;13.80;8.68;;;;;;;20.30;46.04;98971.81;1851533;77;27410;-85
2022/04/14 06:09:07;;;;;;;13.83;8.30;;;;;;;20.31;46.18;98975.41;1851364;77;25651;-85
2022/04/14 06:11:34;;;;;;;12.43;8.43;;;;;;;20.34;46.40;98975.24;1849422;77;25738;-89
2022/04/14 06:14:00;;;;;;;15.55;9.00;;;;;;;20.36;46.48;98978.47;1850100;77;25727;-84
2022/04/14 06:16:26;;;;;;;16.27;9.28;;;;;;;20.36;46.53;98975.11;1851562;77;25623;-86
2022/04/14 06:18:53;;;;;;;16.87;8.85;;;;;;;20.39;46.56;98980.51;1851612;77;27422;-86
2022/04/14 06:21:19;;;;;;;14.83;8.85;;;;;;;20.39;46.65;98970.77;1851389;77;25615;-85
2022/04/14 06:23:45;;;;;;;14.13;8.68;;;;;;;20.43;46.73;98977.19;1851591;77;25654;-86
2022/04/14 06:26:11;;;;;;;14.25;9.10;;;;;;;20.47;46.75;98979.45;1851345;77;25685;-90
2022/04/14 06:28:39;;;;;;;12.18;8.13;;;;;;;20.50;46.79;98977.32;1851547;77;25615;-90
2022/04/14 06:31:05;;;;;;;12.82;8.65;;;;;;;20.53;46.82;98982.11;1851229;77;27466;-92
2022/04/14 06:33:32;;;;;;;14.70;9.20;;;;;;;20.57;46.84;98976.61;1851691;77;25399;-92
2022/04/14 06:35:59;;;;;;;14.47;9.15;;;;;;;20.59;47.02;98981.23;1851803;77;25698;-92
2022/04/14 06:38:27;;;;;;;16.32;9.28;;;;;;;20.62;47.09;98979.09;1851519;77;25782;-90
2022/04/14 06:40:54;;;;;;;13.78;8.85;;;;;;;20.65;47.07;98977.53;1851688;77;25689;-85
2022/04/14 06:43:21;;;;;;;13.15;8.55;;;;;;;20.68;47.19;98975.39;1851563;77;28198;-86
2022/04/14 06:45:48;;;;;;;12.47;8.40;;;;;;;20.72;47.08;98980.41;1851785;77;25644;-87
2022/04/14 06:48:15;;;;;;;13.58;9.10;;;;;;;20.74;47.23;98975.28;1851897;77;25402;-86
2022/04/14 06:50:41;;;;;;;14.20;9.03;;;;;;;20.80;47.32;98977.96;1851962;77;25724;-85
2022/04/14 06:53:08;;;;;;;14.93;9.00;;;;;;;20.87;47.09;98975.06;1851773;77;25630;-88
2022/04/14 06:55:36;;;;;;;12.98;8.50;;;;;;;20.91;47.24;98971.19;1851866;77;27559;-85
2022/04/14 06:58:03;;;;;;;12.90;8.88;;;;;;;20.95;47.30;98971.83;1851373;77;25769;-85
2022/04/14 07:00:30;;;;;;;14.90;8.50;;;;;;;20.98;47.28;98966.28;1851816;77;25728;-89
2022/04/14 07:02:57;;;;;;;17.82;9.40;;;;;;;21.03;47.32;98974.33;1851325;77;26612;-86
2022/04/14 07:05:24;;;;;;;11.80;8.28;;;;;;;21.07;47.33;98972.96;1851761;77;25685;-87
2022/04/14 07:07:51;;;;;;;14.13;8.60;;;;;;;21.12;47.33;98969.05;1851800;77;27362;-86
2022/04/14 07:10:17;;;;;;;13.83;8.98;;;;;;;21.16;47.33;98972.70;1851695;77;25449;-89
2022/04/14 07:12:46;;;;;;;14.10;8.83;;;;;;;21.19;47.28;98976.12;1848534;77;25648;-87
2022/04/14 07:15:13;;;;;;;12.98;8.53;;;;;;;21.24;47.28;98976.38;1851507;77;25913;-88
2022/04/14 07:17:40;;;;;;;14.53;9.00;;;;;;;21.28;47.26;98978.62;1851771;77;25646;-86
2022/04/14 07:20:13;;;;;;;14.38;8.40;;;;;;;21.31;47.24;98973.68;1851840;77;28243;-86
2022/04/14 07:22:49;;;;;;;13.48;8.78;;;;;;;21.36;47.25;98979.52;1850384;77;33134;-85
2022/04/14 07:25:16;;;;;;;13.85;8.70;;;;;;;21.38;47.12;98979.91;1851968;77;25706;-92
2022/04/14 07:27:43;;;;;;;13.10;8.45;;;;;;;21.42;47.10;98980.78;1851736;77;25541;-87
2022/04/14 07:30:12;;;;;;;14.47;8.73;;;;;;;21.46;47.06;98978.02;1851786;77;25350;-90
2022/04/14 07:32:43;;;;;;;13.93;9.15;;;;;;;21.50;47.04;98982.45;1851043;77;27486;-90
2022/04/14 07:35:10;;;;;;;13.20;8.58;;;;;;;21.52;47.00;98981.50;1851428;77;25628;-91
2022/04/14 07:37:36;;;;;;;12.98;8.93;;;;;;;21.56;46.96;98985.73;1851486;77;25713;-90
2022/04/14 07:40:05;;;;;;;13.43;8.73;;;;;;;21.59;46.88;98984.16;1851376;77;26543;-91
2022/04/14 07:42:41;;;;;;;12.88;8.33;;;;;;;21.63;46.85;98976.62;1851420;77;25563;-89
2022/04/14 07:45:10;;;;;;;14.20;8.60;;;;;;;21.67;46.75;98982.45;1851213;77;27312;-91
2022/04/14 07:47:41;;;;;;;13.83;9.13;;;;;;;21.70;46.72;98973.91;1851045;77;25434;-91
2022/04/14 07:50:08;;;;;;;13.00;8.45;;;;;;;21.75;46.69;98979.73;1850965;77;25406;-91
2022/04/14 07:52:48;;;;;;;11.15;7.97;;;;;;;21.77;46.67;98979.62;1851430;77;25843;-92
2022/04/14 07:55:23;;;;;;;12.80;8.03;;;;;;;21.80;46.61;98976.06;1850052;77;25636;-93
2022/04/14 07:57:55;;;;;;;11.95;8.15;;;;;;;21.85;46.55;98980.50;1850574;77;27382;-92
2022/04/14 08:00:23;;;;;;;14.05;7.90;;;;;;;21.87;46.51;98974.50;1851399;77;25629;-91
2022/04/14 08:02:56;;;;;;;13.60;8.43;;;;;;;21.90;46.47;98979.32;1851424;77;25418;-91
2022/04/14 08:05:44;;;;;;;11.35;7.42;;;;;;;21.92;46.43;98974.98;1851562;77;25765;-87
2022/04/14 08:08:17;;;;;;;13.40;8.18;;;;;;;21.96;46.41;98979.80;1851658;77;25605;-84
2022/04/14 08:10:46;;;;;;;12.80;7.97;;;;;;;21.97;46.38;98982.78;1851467;77;27476;-85
2022/04/14 08:13:14;;;;;;;12.70;7.92;;;;;;;21.99;46.40;98981.20;1851345;77;25860;-83
2022/04/14 08:15:41;;;;;;;11.83;7.53;;;;;;;22.02;46.34;98981.05;1851520;77;25664;-85
2022/04/14 08:18:09;;;;;;;12.65;8.35;;;;;;;22.04;46.36;98982.84;1851315;77;25899;-85
2022/04/14 08:20:40;;;;;;;11.55;7.55;;;;;;;22.07;46.36;98990.45;1851425;77;25706;-86
2022/04/14 08:23:14;;;;;;;12.25;7.85;;;;;;;22.09;46.35;98981.70;1847697;77;28376;-86
2022/04/14 08:25:41;;;;;;;14.18;7.67;;;;;;;22.11;46.36;98978.75;1850942;77;25871;-85
2022/04/14 08:28:08;;;;;;;11.90;7.70;;;;;;;22.12;46.37;98971.97;1851282;77;25620;-87
2022/04/14 08:30:36;;;;;;;11.75;7.75;;;;;;;22.14;46.37;98973.77;1851206;77;25801;-84
2022/04/14 08:33:08;;;;;;;11.50;7.55;;;;;;;22.17;46.35;98973.61;1851497;77;25688;-85
2022/04/14 08:35:35;;;;;;;12.65;8.20;;;;;;;22.19;46.28;98978.20;1850789;77;26901;-85
2022/04/14 08:38:07;;;;;;;10.98;8.05;;;;;;;22.23;46.34;98973.47;1851268;77;25976;-87
2022/04/14 08:40:40;;;;;;;12.65;7.97;;;;;;;22.25;46.34;98974.48;1851623;77;25621;-85
2022/04/14 08:43:10;;;;;;;11.85;8.20;;;;;;;22.26;46.36;98976.08;1850730;77;25735;-84
2022/04/14 08:45:48;;;;;;;11.43;8.05;;;;;;;22.27;46.40;98970.69;1851520;77;25625;-83
2022/04/14 08:48:15;;;;;;;12.65;7.58;;;;;;;22.28;46.49;98967.52;1851478;77;27361;-85
2022/04/14 08:50:44;;;;;;;11.65;7.83;;;;;;;22.29;46.46;98971.11;1851306;77;25842;-85
2022/04/14 08:53:11;;;;;;;12.58;8.18;;;;;;;22.31;46.56;98967.35;1851029;77;25751;-89
2022/04/14 08:55:42;;;;;;;12.70;8.45;;;;;;;22.33;46.73;98961.38;1851409;77;26535;-86
2022/04/14 08:58:18;;;;;;;12.47;8.18;;;;;;;22.35;46.93;98965.38;1851032;77;25690;-87
2022/04/14 09:00:46;;;;;;;13.58;8.13;;;;;;;22.37;46.94;98968.60;1851136;77;27573;-87
2022/04/14 09:03:13;;;;;;;12.70;8.68;;;;;;;22.39;47.11;98963.41;1850409;77;25808;-87
2022/04/14 09:05:40;;;;;;;12.05;8.18;;;;;;;22.40;47.11;98956.63;1851119;77;25516;-87
2022/04/14 09:08:07;;;;;;;12.88;8.53;;;;;;;22.42;47.23;98961.83;1851178;77;26304;-86
2022/04/14 09:10:36;;;;;;;12.73;8.28;;;;;;;22.42;47.27;98953.45;1851656;77;25703;-88
2022/04/14 09:13:02;;;;;;;12.45;8.53;;;;;;;22.45;47.26;98961.05;1851567;77;28118;-89
2022/04/14 09:15:29;;;;;;;13.38;8.63;;;;;;;22.46;47.26;98952.91;1851443;77;25683;-88
2022/04/14 09:17:56;;;;;;;11.43;8.10;;;;;;;22.47;47.27;98958.69;1851575;77;25568;-88
2022/04/14 09:20:37;;;;;;;11.33;7.75;;;;;;;22.46;47.29;98948.72;1851735;77;26333;-89
2022/04/14 09:23:22;;;;;;;11.12;8.28;;;;;;;22.49;47.31;98954.11;1851273;77;25413;-88
2022/04/14 09:25:53;;;;;;;10.58;7.85;;;;;;;22.48;47.34;98948.33;1847938;76;27459;-91
2022/04/14 09:28:21;;;;;;;10.45;7.37;;;;;;;22.48;47.33;98946.32;1851487;77;25814;-84
2022/04/14 09:31:13;;;;;;;10.43;8.03;;;;;;;22.49;47.34;98945.73;1851484;77;25393;-84
2022/04/14 09:33:48;;;;;;;10.82;7.60;;;;;;;22.50;47.30;98943.14;1851562;77;26542;-83
2022/04/14 09:36:20;;;;;;;11.43;7.45;;;;;;;22.50;47.31;98936.97;1850684;77;25386;-85
2022/04/14 09:39:05;;;;;;;9.83;7.72;;;;;;;22.48;47.34;98935.15;1851484;77;27370;-84
2022/04/14 09:41:40;;;;;;;10.35;7.33;;;;;;;22.50;47.30;98940.34;1851136;77;25659;-84
2022/04/14 09:44:13;;;;;;;11.78;7.95;;;;;;;22.49;47.30;98938.17;1851567;77;25668;-84
2022/04/14 09:46:46;;;;;;;12.20;7.78;;;;;;;22.49;47.24;98935.97;1851461;77;25730;-84
2022/04/14 09:49:18;;;;;;;11.55;7.87;;;;;;;22.48;47.24;98933.75;1851897;77;25706;-84
2022/04/14 09:51:51;;;;;;;10.82;7.70;;;;;;;22.50;47.23;98938.95;1851661;77;27448;-85
2022/04/14 09:54:20;;;;;;;11.33;7.72;;;;;;;22.49;47.15;98931.77;1851225;77;26117;-84
2022/04/14 09:56:53;;;;;;;11.85;7.92;;;;;;;22.48;47.06;98926.77;1850750;77;25587;-84
2022/04/14 09:59:23;;;;;;;11.70;7.87;;;;;;;22.47;47.04;98931.35;1851215;77;26509;-85
2022/04/14 10:02:08;;;;;;;10.80;7.80;;;;;;;22.48;46.99;98927.39;1851605;77;25422;-89
2022/04/14 10:04:44;;;;;;;9.20;6.70;;;;;;;22.46;46.95;98916.61;1851162;77;27524;-83
2022/04/14 10:07:20;;;;;;;11.45;7.05;;;;;;;22.44;46.90;98911.41;1851413;77;26015;-84
2022/04/14 10:09:50;;;;;;;11.48;7.42;;;;;;;22.43;46.85;98917.38;1851565;77;25577;-83
2022/04/14 10:12:29;;;;;;;12.98;7.00;;;;;;;22.41;46.83;98912.19;1851838;77;25835;-83
2022/04/14 10:15:12;;;;;;;11.25;7.50;;;;;;;22.41;46.84;98909.98;1851109;77;25636;-83
2022/04/14 10:17:38;;;;;;;12.63;6.92;;;;;;;22.38;46.67;98909.36;1849705;77;26984;-83
2022/04/14 10:20:12;;;;;;;14.30;7.50;;;;;;;22.37;46.69;98897.99;1851431;77;25833;-84
2022/04/14 10:22:39;;;;;;;9.88;7.03;;;;;;;22.36;46.69;98897.19;1851208;77;25644;-85
2022/04/14 10:25:07;;;;;;;10.98;6.90;;;;;;;22.34;46.76;98889.00;1851494;77;25730;-87
2022/04/14 10:27:39;;;;;;;12.30;7.17;;;;;;;22.32;46.78;98886.59;1851395;77;25655;-89
2022/04/14 10:30:07;;;;;;;9.63;6.75;;;;;;;22.33;46.84;98888.19;1851584;77;27415;-89
2022/04/14 10:32:37;;;;;;;13.88;7.35;;;;;;;22.33;46.90;98887.41;1851197;77;26010;-90
2022/04/14 10:35:08;;;;;;;10.58;6.47;;;;;;;22.35;46.95;98883.61;1851836;77;25731;-89
2022/04/14 10:37:39;;;;;;;9.95;6.67;;;;;;;22.36;46.88;98884.62;1851143;77;25387;-88
2022/04/14 10:40:09;;;;;;;10.13;6.53;;;;;;;22.35;46.83;98885.81;1851119;77;25425;-87
2022/04/14 10:42:37;;;;;;;;;;;;;;;22.33;46.85;98885.39;1854796;77;27355;-88
2022/04/14 10:45:21;;;;;;;8.93;6.37;;;;;;;22.31;46.77;98878.80;1851703;77;25920;-90
2022/04/14 10:47:59;;;;;;;8.18;6.22;;;;;;;22.29;46.75;98877.60;1851428;77;25756;-85
2022/04/14 10:50:34;;;;;;;9.28;6.35;;;;;;;22.28;46.74;98877.41;1851874;77;25739;-87
2022/04/14 10:53:09;;;;;;;8.13;5.97;;;;;;;22.24;46.74;98871.78;1851773;77;25445;-87
2022/04/14 10:55:38;;;;;;;8.68;6.42;;;;;;;22.22;46.71;98874.16;1851688;77;27474;-85
2022/04/14 10:58:06;;;;;;;10.28;6.62;;;;;;;22.22;46.72;98871.36;1852040;77;25696;-88
2022/04/14 11:00:36;;;;;;;8.33;6.22;;;;;;;22.21;46.70;98871.16;1851749;77;25670;-89
2022/04/14 11:03:11;;;;;;;7.75;5.90;;;;;;;22.18;46.72;98869.95;1851509;77;25852;-88
2022/04/14 11:05:48;;;;;;;10.30;6.40;;;;;;;22.16;46.76;98867.33;1851853;77;25351;-88
2022/04/14 11:08:31;;;;;;;8.95;6.15;;;;;;;22.13;46.78;98861.94;1851735;77;27322;-86
2022/04/14 11:11:13;;;;;;;9.08;6.42;;;;;;;22.12;46.83;98860.34;1851540;77;25598;-85
2022/04/14 11:13:57;;;;;;;9.43;6.90;;;;;;;22.10;46.85;98854.95;1851677;77;25645;-85
2022/04/14 11:16:44;;;;;;;7.92;6.08;;;;;;;22.09;46.89;98856.13;1851656;77;25713;-87
2022/04/14 11:19:26;;;;;;;9.30;6.30;;;;;;;22.06;46.89;98858.52;1851420;77;25643;-85
2022/04/14 11:22:08;;;;;;;8.73;5.95;;;;;;;22.05;46.93;98853.33;1851460;77;27477;-86
2022/04/14 11:24:41;;;;;;;10.03;6.35;;;;;;;22.03;47.02;98865.45;1851384;77;25430;-87
2022/04/14 11:27:17;;;;;;;13.65;6.58;;;;;;;22.01;47.14;98860.27;1851637;77;25691;-89
2022/04/14 11:29:47;;;;;;;7.83;5.90;;;;;;;22.00;47.23;98855.06;1851747;77;25680;-90
2022/04/14 11:32:16;;;;;;;9.30;6.22;;;;;;;22.01;47.34;98851.89;1850877;77;25545;-86
2022/04/14 11:34:43;;;;;;;8.93;5.80;;;;;;;22.00;47.55;98846.70;1849400;77;28063;-86
2022/04/14 11:37:44;;;;;;;10.45;6.33;;;;;;;22.05;47.60;98845.73;1849257;77;25659;-90